createdAt,value
2017-01-11T00:00:54.086Z,99991
2017-01-11T00:01:54.131Z,99989
2017-01-11T00:02:54.260Z,99988
2017-01-11T00:03:53.682Z,99974
2017-01-11T00:04:54.207Z,99978
2017-01-11T00:05:53.677Z,99979
2017-01-11T00:06:53.717Z,99968
2017-01-11T00:07:53.800Z,99972
2017-01-11T00:08:54.257Z,99967
2017-01-11T00:09:53.774Z,99962
2017-01-11T00:10:53.955Z,99964
2017-01-11T00:11:54.476Z,99966
2017-01-11T00:12:53.981Z,99955
2017-01-11T00:13:54.574Z,99962
2017-01-11T00:14:54.646Z,99959
2017-01-11T00:15:54.662Z,99957
2017-01-11T00:16:54.175Z,99956
2017-01-11T00:17:55.394Z,99953
2017-01-11T00:18:54.916Z,99955
2017-01-11T00:19:54.338Z,99957
2017-01-11T00:20:54.295Z,99951
2017-01-11T00:21:54.332Z,99962
2017-01-11T00:22:54.320Z,99955
2017-01-11T00:23:54.921Z,99958
2017-01-11T00:24:54.974Z,99965
2017-01-11T00:25:54.481Z,99957
2017-01-11T00:26:55.034Z,99961
2017-01-11T00:27:55.007Z,99961
2017-01-11T00:28:54.492Z,99960
2017-01-11T00:29:55.109Z,99962
2017-01-11T00:30:55.226Z,99956
2017-01-11T00:31:55.245Z,99957
2017-01-11T00:32:55.279Z,99949
2017-01-11T00:33:54.872Z,99946
2017-01-11T00:34:55.416Z,99945
2017-01-11T00:35:55.441Z,99937
2017-01-11T00:36:55.485Z,99933
2017-01-11T00:37:56.245Z,99931
2017-01-11T00:38:55.066Z,99931
2017-01-11T00:39:55.194Z,99929
2017-01-11T00:40:55.784Z,99931
2017-01-11T00:41:55.360Z,99927
2017-01-11T00:42:55.399Z,99927
2017-01-11T00:43:55.436Z,99923
2017-01-11T00:44:55.993Z,99926
2017-01-11T00:45:56.113Z,99921
2017-01-11T00:46:57.456Z,99925
2017-01-11T00:47:56.117Z,99925
2017-01-11T00:48:55.658Z,99924
2017-01-11T00:49:56.263Z,99918
2017-01-11T00:50:56.253Z,99933
2017-01-11T00:51:55.813Z,99935
2017-01-11T00:52:56.433Z,99932
2017-01-11T00:53:56.516Z,99939
2017-01-11T00:54:56.540Z,99942
2017-01-11T00:55:56.056Z,99937
2017-01-11T00:56:56.111Z,99944
2017-01-11T00:57:56.166Z,99937
2017-01-11T00:58:56.268Z,99935
2017-01-11T00:59:56.347Z,99932
2017-01-11T01:00:56.361Z,99928
2017-01-11T01:01:56.420Z,99927
2017-01-11T01:02:57.076Z,99926
2017-01-11T01:03:57.067Z,99922
2017-01-11T01:04:57.107Z,99913
2017-01-11T01:05:57.108Z,99919
2017-01-11T01:06:57.129Z,99922
2017-01-11T01:07:57.159Z,99923
2017-01-11T01:08:56.768Z,99921
2017-01-11T01:09:56.785Z,99934
2017-01-11T01:10:57.284Z,99942
2017-01-11T01:11:57.434Z,99945
2017-01-11T01:12:57.416Z,99937
2017-01-11T01:13:57.501Z,99938
2017-01-11T01:14:57.554Z,99940
2017-01-11T01:15:57.061Z,99937
2017-01-11T01:16:57.095Z,99939
2017-01-11T01:17:57.116Z,99941
2017-01-11T01:18:58.280Z,99944
2017-01-11T01:19:57.848Z,99934
2017-01-11T01:20:57.900Z,99941
2017-01-11T01:21:58.039Z,99931
2017-01-11T01:22:58.097Z,99929
2017-01-11T01:23:58.143Z,99920
2017-01-11T01:24:58.166Z,99925
2017-01-11T01:25:57.724Z,99924
2017-01-11T01:26:57.739Z,99923
2017-01-11T01:27:58.259Z,99921
2017-01-11T01:28:57.811Z,99924
2017-01-11T01:29:57.943Z,99926
2017-01-11T01:30:58.559Z,99932
2017-01-11T01:31:57.966Z,99934
2017-01-11T01:32:58.609Z,99920
2017-01-11T01:33:58.726Z,99919
2017-01-11T01:34:58.755Z,99911
2017-01-11T01:35:58.312Z,99911
2017-01-11T01:36:58.948Z,99912
2017-01-11T01:37:58.402Z,99916
2017-01-11T01:38:58.488Z,99913
2017-01-11T01:39:59.063Z,99915
2017-01-11T01:40:58.568Z,99904
2017-01-11T01:41:58.696Z,99908
2017-01-11T01:42:58.706Z,99906
2017-01-11T01:43:59.273Z,99901
2017-01-11T01:44:59.263Z,99906
2017-01-11T01:45:58.707Z,99903
2017-01-11T01:46:58.745Z,99914
2017-01-11T01:47:58.732Z,99913
2017-01-11T01:48:58.803Z,99912
2017-01-11T01:49:58.876Z,99915
2017-01-11T01:50:58.925Z,99914
2017-01-11T01:51:59.483Z,99912
2017-01-11T01:52:59.551Z,99913
2017-01-11T01:53:59.027Z,99910
2017-01-11T01:54:59.598Z,99905
2017-01-11T01:55:59.133Z,99903
2017-01-11T01:56:59.168Z,99909
2017-01-11T01:57:59.795Z,99905
2017-01-11T01:58:59.836Z,99908
2017-01-11T01:59:59.821Z,99908
2017-01-11T02:00:59.901Z,99910
2017-01-11T02:01:59.377Z,99902
2017-01-11T02:02:59.530Z,99909
2017-01-11T02:03:59.571Z,99900
2017-01-11T02:05:00.083Z,99900
2017-01-11T02:06:00.127Z,99888
2017-01-11T02:06:59.653Z,99896
2017-01-11T02:08:00.280Z,99890
2017-01-11T02:08:59.756Z,99879
2017-01-11T02:09:59.805Z,99881
2017-01-11T02:10:59.861Z,99877
2017-01-11T02:11:59.884Z,99872
2017-01-11T02:12:59.894Z,99872
2017-01-11T02:14:00.492Z,99878
2017-01-11T02:14:59.960Z,99876
2017-01-11T02:16:01.266Z,99874
2017-01-11T02:17:00.057Z,99860
2017-01-11T02:18:00.138Z,99863
2017-01-11T02:19:00.739Z,99860
2017-01-11T02:20:00.762Z,99862
2017-01-11T02:21:00.255Z,99858
2017-01-11T02:22:00.303Z,99863
2017-01-11T02:23:00.387Z,99860
2017-01-11T02:24:01.019Z,99853
2017-01-11T02:25:01.012Z,99846
2017-01-11T02:26:00.544Z,99853
2017-01-11T02:27:00.617Z,99859
2017-01-11T02:28:00.647Z,99861
2017-01-11T02:29:01.320Z,99860
2017-01-11T02:30:01.338Z,99853
2017-01-11T02:31:00.960Z,99851
2017-01-11T02:32:00.946Z,99851
2017-01-11T02:33:00.986Z,99854
2017-01-11T02:34:01.042Z,99854
2017-01-11T02:35:01.106Z,99854
2017-01-11T02:36:01.157Z,99854
2017-01-11T02:37:01.741Z,99852
2017-01-11T02:38:01.290Z,99852
2017-01-11T02:39:01.946Z,99856
2017-01-11T02:40:01.892Z,99860
2017-01-11T02:41:02.572Z,99862
2017-01-11T02:42:01.994Z,99862
2017-01-11T02:43:02.030Z,99863
2017-01-11T02:44:02.060Z,99868
2017-01-11T02:45:01.539Z,99863
2017-01-11T02:46:02.123Z,99855
2017-01-11T02:47:02.245Z,99848
2017-01-11T02:48:02.359Z,99839
2017-01-11T02:49:02.361Z,99838
2017-01-11T02:50:02.407Z,99829
2017-01-11T02:51:02.469Z,99825
2017-01-11T02:52:01.978Z,99827
2017-01-11T02:53:01.986Z,99840
2017-01-11T02:54:02.057Z,99843
2017-01-11T02:55:02.692Z,99847
2017-01-11T02:56:02.155Z,99847
2017-01-11T02:57:02.749Z,99839
2017-01-11T02:58:02.208Z,99833
2017-01-11T02:59:02.296Z,99823
2017-01-11T03:00:02.323Z,99830
2017-01-11T03:01:03.476Z,99822
2017-01-11T03:02:02.907Z,99815
2017-01-11T03:03:02.891Z,99813
2017-01-11T03:04:02.474Z,99807
2017-01-11T03:05:02.951Z,99803
2017-01-11T03:06:03.064Z,99800
2017-01-11T03:07:02.522Z,99798
2017-01-11T03:08:02.546Z,99799
2017-01-11T03:09:03.180Z,99787
2017-01-11T03:10:02.661Z,99792
2017-01-11T03:11:02.791Z,99786
2017-01-11T03:12:03.377Z,99787
2017-01-11T03:13:02.875Z,99789
2017-01-11T03:14:02.839Z,99794
2017-01-11T03:15:03.474Z,99788
2017-01-11T03:16:02.926Z,99796
2017-01-11T03:17:03.504Z,99797
2017-01-11T03:18:04.238Z,99800
2017-01-11T03:19:03.636Z,99802
2017-01-11T03:20:03.691Z,99801
2017-01-11T03:21:03.249Z,99802
2017-01-11T03:22:03.869Z,99807
2017-01-11T03:23:03.972Z,99798
2017-01-11T03:24:03.964Z,99794
2017-01-11T03:25:03.497Z,99798
2017-01-11T03:26:04.144Z,99798
2017-01-11T03:27:03.643Z,99798
2017-01-11T03:28:04.234Z,99798
2017-01-11T03:29:03.743Z,99802
2017-01-11T03:30:03.812Z,99793
2017-01-11T03:31:03.845Z,99800
2017-01-11T03:32:03.927Z,99801
2017-01-11T03:33:04.549Z,99800
2017-01-11T03:34:04.669Z,99799
2017-01-11T03:35:04.631Z,99792
2017-01-11T03:36:04.667Z,99797
2017-01-11T03:37:04.153Z,99792
2017-01-11T03:38:04.705Z,99786
2017-01-11T03:39:04.789Z,99783
2017-01-11T03:40:04.374Z,99791
2017-01-11T03:41:05.051Z,99797
2017-01-11T03:42:04.416Z,99797
2017-01-11T03:43:04.506Z,99802
2017-01-11T03:44:04.599Z,99800
2017-01-11T03:45:04.637Z,99794
2017-01-11T03:46:05.941Z,99789
2017-01-11T03:47:05.343Z,99789
2017-01-11T03:48:05.312Z,99777
2017-01-11T03:49:04.799Z,99790
2017-01-11T03:50:04.912Z,99794
2017-01-11T03:51:05.012Z,99785
2017-01-11T03:52:05.609Z,99790
2017-01-11T03:53:05.575Z,99789
2017-01-11T03:54:05.037Z,99789
2017-01-11T03:55:05.055Z,99787
2017-01-11T03:56:05.699Z,99779
2017-01-11T03:57:05.764Z,99779
2017-01-11T03:58:05.752Z,99783
2017-01-11T03:59:05.759Z,99777
2017-01-11T04:00:05.287Z,99776
2017-01-11T04:01:05.778Z,99775
2017-01-11T04:02:05.278Z,99763
2017-01-11T04:03:05.950Z,99771
2017-01-11T04:04:05.964Z,99772
2017-01-11T04:05:05.451Z,99763
2017-01-11T04:06:06.027Z,99763
2017-01-11T04:07:05.555Z,99759
2017-01-11T04:08:06.189Z,99754
2017-01-11T04:09:06.205Z,99749
2017-01-11T04:10:06.202Z,99753
2017-01-11T04:11:05.667Z,99750
2017-01-11T04:12:06.261Z,99745
2017-01-11T04:13:06.376Z,99742
2017-01-11T04:14:05.840Z,99738
2017-01-11T04:15:05.901Z,99744
2017-01-11T04:16:05.965Z,99729
2017-01-11T04:17:05.995Z,99739
2017-01-11T04:18:06.072Z,99732
2017-01-11T04:19:06.586Z,99736
2017-01-11T04:20:06.594Z,99719
2017-01-11T04:21:06.109Z,99724
2017-01-11T04:22:06.128Z,99716
2017-01-11T04:23:06.157Z,99713
2017-01-11T04:24:06.778Z,99712
2017-01-11T04:25:06.306Z,99705
2017-01-11T04:26:06.879Z,99698
2017-01-11T04:27:06.402Z,99690
2017-01-11T04:28:06.575Z,99690
2017-01-11T04:29:06.443Z,99689
2017-01-11T04:30:06.491Z,99686
2017-01-11T04:31:06.515Z,99688
2017-01-11T04:32:07.113Z,99689
2017-01-11T04:33:07.209Z,99684
2017-01-11T04:34:07.260Z,99684
2017-01-11T04:35:06.759Z,99679
2017-01-11T04:36:07.895Z,99677
2017-01-11T04:37:07.364Z,99676
2017-01-11T04:38:07.442Z,99678
2017-01-11T04:39:07.487Z,99690
2017-01-11T04:40:06.985Z,99698
2017-01-11T04:41:07.978Z,99700
2017-01-11T04:42:07.062Z,99694
2017-01-11T04:43:07.123Z,99687
2017-01-11T04:44:07.840Z,99690
2017-01-11T04:45:07.878Z,99689
2017-01-11T04:46:07.397Z,99688
2017-01-11T04:47:08.006Z,99688
2017-01-11T04:48:07.506Z,99690
2017-01-11T04:49:08.091Z,99680
2017-01-11T04:50:07.594Z,99677
2017-01-11T04:51:07.663Z,99684
2017-01-11T04:52:08.203Z,99688
2017-01-11T04:53:08.270Z,99693
2017-01-11T04:54:08.274Z,99692
2017-01-11T04:55:08.333Z,99705
2017-01-11T04:56:07.941Z,99701
2017-01-11T04:57:07.973Z,99703
2017-01-11T04:58:08.075Z,99704
2017-01-11T04:59:08.657Z,99699
2017-01-11T05:00:08.742Z,99696
2017-01-11T05:01:08.199Z,99702
2017-01-11T05:02:08.890Z,99699
2017-01-11T05:03:08.970Z,99698
2017-01-11T05:04:08.510Z,99695
2017-01-11T05:05:09.168Z,99693
2017-01-11T05:06:08.552Z,99694
2017-01-11T05:07:08.651Z,99690
2017-01-11T05:08:08.697Z,99691
2017-01-11T05:09:09.303Z,99687
2017-01-11T05:10:08.770Z,99683
2017-01-11T05:11:08.795Z,99687
2017-01-11T05:12:08.825Z,99676
2017-01-11T05:13:08.916Z,99674
2017-01-11T05:14:09.066Z,99677
2017-01-11T05:15:09.181Z,99672
2017-01-11T05:16:09.690Z,99671
2017-01-11T05:17:09.151Z,99665
2017-01-11T05:18:09.739Z,99659
2017-01-11T05:19:09.714Z,99657
2017-01-11T05:20:09.245Z,99663
2017-01-11T05:21:09.820Z,99663
2017-01-11T05:22:09.358Z,99658
2017-01-11T05:23:09.422Z,99651
2017-01-11T05:24:09.975Z,99648
2017-01-11T05:25:09.464Z,99640
2017-01-11T05:26:09.589Z,99634
2017-01-11T05:27:09.643Z,99631
2017-01-11T05:28:10.232Z,99635
2017-01-11T05:29:10.313Z,99636
2017-01-11T05:30:10.283Z,99628
2017-01-11T05:31:10.314Z,99630
2017-01-11T05:32:10.419Z,99631
2017-01-11T05:33:09.915Z,99624
2017-01-11T05:34:10.536Z,99621
2017-01-11T05:35:10.614Z,99619
2017-01-11T05:36:10.121Z,99610
2017-01-11T05:37:10.595Z,99610
2017-01-11T05:38:10.652Z,99609
2017-01-11T05:39:10.708Z,99607
2017-01-11T05:40:10.898Z,99603
2017-01-11T05:41:11.289Z,99604
2017-01-11T05:42:10.780Z,99595
2017-01-11T05:43:10.342Z,99586
2017-01-11T05:44:10.374Z,99576
2017-01-11T05:45:10.886Z,99575
2017-01-11T05:46:10.376Z,99577
2017-01-11T05:47:11.111Z,99576
2017-01-11T05:48:11.040Z,99574
2017-01-11T05:49:11.034Z,99586
2017-01-11T05:50:10.585Z,99568
2017-01-11T05:51:10.618Z,99562
2017-01-11T05:52:10.720Z,99553
2017-01-11T05:53:11.285Z,99553
2017-01-11T05:54:10.883Z,99549
2017-01-11T05:55:11.347Z,99553
2017-01-11T05:56:11.462Z,99558
2017-01-11T05:57:10.887Z,99551
2017-01-11T05:58:11.015Z,99548
2017-01-11T05:59:11.093Z,99537
2017-01-11T06:00:11.129Z,99534
2017-01-11T06:01:11.160Z,99527
2017-01-11T06:02:11.171Z,99521
2017-01-11T06:03:11.168Z,99522
2017-01-11T06:04:11.714Z,99520
2017-01-11T06:05:11.340Z,99512
2017-01-11T06:06:11.940Z,99508
2017-01-11T06:07:11.356Z,99512
2017-01-11T06:08:11.437Z,99513
2017-01-11T06:09:12.004Z,99514
2017-01-11T06:10:11.497Z,99512
2017-01-11T06:11:12.102Z,99518
2017-01-11T06:12:11.582Z,99519
2017-01-11T06:13:12.156Z,99512
2017-01-11T06:14:11.586Z,99510
2017-01-11T06:15:12.178Z,99503
2017-01-11T06:16:12.265Z,99504
2017-01-11T06:17:11.742Z,99500
2017-01-11T06:18:12.324Z,99496
2017-01-11T06:19:11.797Z,99489
2017-01-11T06:20:11.951Z,99497
2017-01-11T06:21:12.469Z,99496
2017-01-11T06:22:12.499Z,99492
2017-01-11T06:23:12.127Z,99498
2017-01-11T06:24:12.215Z,99493
2017-01-11T06:25:13.303Z,99499
2017-01-11T06:26:12.285Z,99501
2017-01-11T06:27:12.807Z,99501
2017-01-11T06:28:12.327Z,99504
2017-01-11T06:29:12.840Z,99507
2017-01-11T06:30:12.361Z,99511
2017-01-11T06:31:12.349Z,99513
2017-01-11T06:32:12.439Z,99506
2017-01-11T06:33:12.504Z,99506
2017-01-11T06:34:13.112Z,99515
2017-01-11T06:35:13.234Z,99510
2017-01-11T06:36:12.707Z,99515
2017-01-11T06:37:12.786Z,99509
2017-01-11T06:38:13.409Z,99517
2017-01-11T06:39:13.436Z,99524
2017-01-11T06:40:12.971Z,99525
2017-01-11T06:41:13.588Z,99525
2017-01-11T06:42:13.556Z,99526
2017-01-11T06:43:13.121Z,99534
2017-01-11T06:44:13.676Z,99533
2017-01-11T06:45:13.171Z,99538
2017-01-11T06:46:13.158Z,99538
2017-01-11T06:47:13.288Z,99541
2017-01-11T06:48:13.369Z,99546
2017-01-11T06:49:13.927Z,99545
2017-01-11T06:50:15.066Z,99549
2017-01-11T06:51:13.436Z,99547
2017-01-11T06:52:14.035Z,99544
2017-01-11T06:53:13.988Z,99542
2017-01-11T06:54:13.537Z,99544
2017-01-11T06:55:14.936Z,99535
2017-01-11T06:56:14.828Z,99540
2017-01-11T06:57:14.953Z,99541
2017-01-11T06:58:13.844Z,99540
2017-01-11T06:59:13.867Z,99543
2017-01-11T07:00:15.403Z,99549
2017-01-11T07:01:13.985Z,99546
2017-01-11T07:02:14.598Z,99549
2017-01-11T07:03:14.070Z,99546
2017-01-11T07:04:14.117Z,99548
2017-01-11T07:05:14.199Z,99542
2017-01-11T07:06:54.786Z,99553
2017-01-11T07:07:54.816Z,99553
2017-01-11T07:08:54.802Z,99558
2017-01-11T07:09:54.423Z,99555
2017-01-11T07:10:54.359Z,99555
2017-01-11T07:11:54.991Z,99549
2017-01-11T07:12:55.112Z,99541
2017-01-11T07:13:55.091Z,99536
2017-01-11T07:14:55.109Z,99542
2017-01-11T07:15:55.223Z,99532
2017-01-11T07:16:55.175Z,99539
2017-01-11T07:17:54.633Z,99544
2017-01-11T07:18:57.343Z,99548
2017-01-11T07:19:54.796Z,99539
2017-01-11T07:20:54.807Z,99550
2017-01-11T07:21:55.464Z,99557
2017-01-11T07:22:54.890Z,99541
2017-01-11T07:23:55.430Z,99535
2017-01-11T07:24:55.512Z,99545
2017-01-11T07:25:55.534Z,99524
2017-01-11T07:26:55.080Z,99525
2017-01-11T07:27:55.119Z,99509
2017-01-11T07:29:06.410Z,99513
2017-01-11T07:29:55.668Z,99511
2017-01-11T07:30:55.898Z,99512
2017-01-11T07:31:59.243Z,99509
2017-01-11T07:32:55.317Z,99507
2017-01-11T07:33:55.967Z,99492
2017-01-11T07:34:55.955Z,99486
2017-01-11T07:35:55.505Z,99483
2017-01-11T07:36:56.040Z,99474
2017-01-11T07:37:56.153Z,99469
2017-01-11T07:38:56.153Z,99470
2017-01-11T07:39:56.216Z,99476
2017-01-11T07:40:55.774Z,99467
2017-01-11T07:41:56.303Z,99476
2017-01-11T07:42:56.302Z,99477
2017-01-11T07:43:55.846Z,99469
2017-01-11T07:44:56.376Z,99470
2017-01-11T07:45:56.464Z,99463
2017-01-11T07:46:55.971Z,99451
2017-01-11T07:47:55.994Z,99450
2017-01-11T07:48:56.685Z,99449
2017-01-11T07:49:56.801Z,99450
2017-01-11T07:50:56.215Z,99442
2017-01-11T07:51:56.244Z,99447
2017-01-11T07:52:56.892Z,99463
2017-01-11T07:53:56.969Z,99467
2017-01-11T07:54:56.451Z,99490
2017-01-11T07:55:57.079Z,99486
2017-01-11T07:56:57.167Z,99488
2017-01-11T07:57:58.903Z,99486
2017-01-11T07:58:56.722Z,99492
2017-01-11T07:59:57.330Z,99499
2017-01-11T08:00:56.818Z,99496
2017-01-11T08:01:56.854Z,99475
2017-01-11T08:02:56.933Z,99493
2017-01-11T08:03:57.579Z,99466
2017-01-11T08:04:57.006Z,99452
2017-01-11T08:05:58.211Z,99446
2017-01-11T08:06:57.616Z,99434
2017-01-11T08:07:57.073Z,99421
2017-01-11T08:08:57.707Z,99403
2017-01-11T08:09:57.688Z,99416
2017-01-11T08:10:57.794Z,99419
2017-01-11T08:11:57.805Z,99411
2017-01-11T08:12:57.810Z,99355
2017-01-11T08:13:57.320Z,99412
2017-01-11T08:14:57.373Z,99411
2017-01-11T08:15:58.081Z,99403
2017-01-11T08:16:57.483Z,99406
2017-01-11T08:18:04.353Z,99389
2017-01-11T08:18:59.454Z,99398
2017-01-11T08:20:00.302Z,99397
2017-01-11T08:20:57.697Z,99397
2017-01-11T08:21:58.229Z,99398
2017-01-11T08:22:58.271Z,99391
2017-01-11T08:23:58.337Z,99388
2017-01-11T08:24:58.469Z,99395
2017-01-11T08:25:58.480Z,99416
2017-01-11T08:26:58.488Z,99397
2017-01-11T08:27:58.021Z,99394
2017-01-11T08:29:00.690Z,99396
2017-01-11T08:29:58.675Z,99415
2017-01-11T08:30:58.139Z,99376
2017-01-11T08:31:59.479Z,99383
2017-01-11T08:32:59.535Z,99370
2017-01-11T08:33:58.916Z,99370
2017-01-11T08:34:58.469Z,99364
2017-01-11T08:35:58.429Z,99372
2017-01-11T08:36:59.023Z,99355
2017-01-11T08:37:58.554Z,99352
2017-01-11T08:38:59.121Z,99355
2017-01-11T08:39:59.172Z,99355
2017-01-11T08:40:58.610Z,99346
2017-01-11T08:41:59.183Z,99341
2017-01-11T08:42:59.844Z,99334
2017-01-11T08:43:59.268Z,99325
2017-01-11T08:44:59.356Z,99327
2017-01-11T08:45:58.861Z,99331
2017-01-11T08:47:00.230Z,99327
2017-01-11T08:48:00.558Z,99314
2017-01-11T08:48:59.067Z,99300
2017-01-11T08:50:00.146Z,99308
2017-01-11T08:50:59.781Z,99290
2017-01-11T08:51:59.207Z,99306
2017-01-11T08:52:59.265Z,99288
2017-01-11T08:53:59.329Z,99294
2017-01-11T08:54:59.973Z,99293
2017-01-11T08:56:01.571Z,99287
2017-01-11T08:57:00.733Z,99274
2017-01-11T08:57:59.561Z,99292
2017-01-11T08:59:01.542Z,99320
2017-01-11T09:00:01.812Z,99296
2017-01-11T09:01:00.418Z,99282
2017-01-11T09:01:59.862Z,99297
2017-01-11T09:03:00.706Z,99251
2017-01-11T09:03:59.953Z,99267
2017-01-11T09:04:59.970Z,99258
2017-01-11T09:06:00.057Z,99266
2017-01-11T09:07:00.614Z,99272
2017-01-11T09:08:01.569Z,99271
2017-01-11T09:09:01.432Z,99265
2017-01-11T09:10:00.319Z,99267
2017-01-11T09:11:01.037Z,99257
2017-01-11T09:12:01.561Z,99247
2017-01-11T09:13:00.995Z,99274
2017-01-11T09:14:01.114Z,99246
2017-01-11T09:15:00.519Z,99242
2017-01-11T09:16:02.618Z,99248
2017-01-11T09:17:01.134Z,99251
2017-01-11T09:18:01.401Z,99245
2017-01-11T09:19:01.266Z,99266
2017-01-11T09:20:01.349Z,99231
2017-01-11T09:21:00.772Z,99233
2017-01-11T09:22:01.397Z,99233
2017-01-11T09:23:00.798Z,99233
2017-01-11T09:24:04.163Z,99227
2017-01-11T09:25:01.524Z,99231
2017-01-11T09:26:02.194Z,99226
2017-01-11T09:27:01.442Z,99220
2017-01-11T09:28:03.601Z,99248
2017-01-11T09:29:02.269Z,99203
2017-01-11T09:30:11.467Z,99207
2017-01-11T09:31:08.061Z,99204
2017-01-11T09:32:08.922Z,99199
2017-01-11T09:33:11.719Z,99194
2017-01-11T09:34:06.893Z,99199
2017-01-11T09:35:06.708Z,99206
2017-01-11T09:36:09.554Z,99204
2017-01-11T09:37:08.042Z,99191
2017-01-11T09:38:07.037Z,99206
2017-01-11T09:39:02.176Z,99212
2017-01-11T09:40:08.196Z,99207
2017-01-11T09:41:05.047Z,99213
2017-01-11T09:42:06.498Z,99213
2017-01-11T09:43:03.806Z,99215
2017-01-11T09:44:02.325Z,99211
2017-01-11T09:45:01.806Z,99201
2017-01-11T09:46:03.976Z,99203
2017-01-11T09:47:04.638Z,99198
2017-01-11T09:48:08.637Z,99199
2017-01-11T09:49:04.372Z,99190
2017-01-11T09:50:02.644Z,99181
2017-01-11T09:51:02.587Z,99181
2017-01-11T09:52:02.652Z,99185
2017-01-11T09:53:02.640Z,99179
2017-01-11T09:54:02.838Z,99180
2017-01-11T09:55:04.764Z,99180
2017-01-11T09:56:02.942Z,99159
2017-01-11T09:57:02.887Z,99161
2017-01-11T09:58:02.954Z,99164
2017-01-11T09:59:03.055Z,99171
2017-01-11T10:00:02.910Z,99171
2017-01-11T10:01:02.440Z,99159
2017-01-11T10:02:03.206Z,99147
2017-01-11T10:03:02.649Z,99140
2017-01-11T10:04:02.673Z,99149
2017-01-11T10:05:03.281Z,99156
2017-01-11T10:06:03.304Z,99185
2017-01-11T10:07:03.469Z,99140
2017-01-11T10:08:03.875Z,99130
2017-01-11T10:09:03.614Z,99141
2017-01-11T10:10:03.501Z,99112
2017-01-11T10:11:04.307Z,99108
2017-01-11T10:12:03.596Z,99114
2017-01-11T10:13:03.701Z,99095
2017-01-11T10:14:03.140Z,99095
2017-01-11T10:15:03.746Z,99090
2017-01-11T10:16:03.226Z,99091
2017-01-11T10:17:03.296Z,99077
2017-01-11T10:18:03.292Z,99073
2017-01-11T10:19:04.491Z,99084
2017-01-11T10:20:03.348Z,99086
2017-01-11T10:21:04.039Z,99106
2017-01-11T10:22:03.588Z,99110
2017-01-11T10:23:03.595Z,99093
2017-01-11T10:24:03.642Z,99077
2017-01-11T10:25:06.383Z,99088
2017-01-11T10:26:03.683Z,99068
2017-01-11T10:27:03.979Z,99072
2017-01-11T10:28:05.059Z,99061
2017-01-11T10:29:04.396Z,99055
2017-01-11T10:30:05.174Z,99052
2017-01-11T10:31:04.491Z,99057
2017-01-11T10:32:05.335Z,99058
2017-01-11T10:33:06.112Z,99064
2017-01-11T10:34:06.003Z,99056
2017-01-11T10:35:05.449Z,99065
2017-01-11T10:36:04.192Z,99064
2017-01-11T10:37:04.792Z,99072
2017-01-11T10:38:05.452Z,99069
2017-01-11T10:39:05.661Z,99072
2017-01-11T10:40:04.939Z,99052
2017-01-11T10:41:04.475Z,99070
2017-01-11T10:42:05.100Z,99053
2017-01-11T10:43:05.180Z,99049
2017-01-11T10:44:04.728Z,99052
2017-01-11T10:45:05.276Z,99058
2017-01-11T10:46:07.098Z,99038
2017-01-11T10:47:04.866Z,99044
2017-01-11T10:48:05.375Z,99062
2017-01-11T10:49:05.514Z,99034
2017-01-11T10:50:06.674Z,99035
2017-01-11T10:51:07.608Z,99028
2017-01-11T10:52:07.816Z,99016
2017-01-11T10:53:08.650Z,99030
2017-01-11T10:54:06.374Z,99019
2017-01-11T10:55:09.242Z,99020
2017-01-11T10:56:11.268Z,99017
2017-01-11T10:57:06.820Z,99003
2017-01-11T10:58:16.273Z,99004
2017-01-11T10:59:11.168Z,98997
2017-01-11T11:00:09.279Z,98995
2017-01-11T11:01:13.861Z,99006
2017-01-11T11:02:12.681Z,99007
2017-01-11T11:03:07.696Z,99014
2017-01-11T11:04:06.952Z,99003
2017-01-11T11:05:06.398Z,98983
2017-01-11T11:06:07.889Z,98993
2017-01-11T11:07:07.547Z,98998
2017-01-11T11:08:06.553Z,99008
2017-01-11T11:09:06.055Z,98992
2017-01-11T11:10:06.186Z,98992
2017-01-11T11:11:06.715Z,98993
2017-01-11T11:12:09.032Z,98997
2017-01-11T11:13:06.453Z,98989
2017-01-11T11:14:09.449Z,98997
2017-01-11T11:15:07.794Z,99009
2017-01-11T11:16:08.271Z,99006
2017-01-11T11:17:09.175Z,98994
2017-01-11T11:18:09.903Z,99008
2017-01-11T11:19:07.957Z,98993
2017-01-11T11:20:06.620Z,99005
2017-01-11T11:21:06.659Z,99004
2017-01-11T11:22:07.342Z,98989
2017-01-11T11:23:06.690Z,98989
2017-01-11T11:24:08.067Z,98986
2017-01-11T11:25:11.374Z,98976
2017-01-11T11:26:08.347Z,98975
2017-01-11T11:27:07.553Z,98982
2017-01-11T11:28:06.947Z,98985
2017-01-11T11:29:09.323Z,99007
2017-01-11T11:30:09.780Z,98990
2017-01-11T11:31:07.204Z,98989
2017-01-11T11:32:08.460Z,98978
2017-01-11T11:33:08.390Z,98952
2017-01-11T11:35:08.389Z,98976
2017-01-11T11:36:10.510Z,98962
2017-01-11T11:37:10.369Z,98953
2017-01-11T11:38:12.554Z,98958
2017-01-11T11:39:11.586Z,98964
2017-01-11T11:40:10.442Z,98943
2017-01-11T11:41:10.043Z,98941
2017-01-11T11:42:08.939Z,98946
2017-01-11T11:43:09.931Z,98941
2017-01-11T11:44:13.108Z,98947
2017-01-11T11:45:10.291Z,98936
2017-01-11T11:46:15.356Z,98937
2017-01-11T11:47:08.493Z,98923
2017-01-11T11:48:09.031Z,98919
2017-01-11T11:49:09.486Z,98925
2017-01-11T11:50:08.117Z,98923
2017-01-11T11:51:10.753Z,98930
2017-01-11T11:52:10.187Z,98925
2017-01-11T11:53:10.116Z,98936
2017-01-11T11:54:09.534Z,98921
2017-01-11T11:55:09.484Z,98917
2017-01-11T11:56:08.347Z,98932
2017-01-11T11:57:08.439Z,98943
2017-01-11T11:58:09.753Z,98963
2017-01-11T11:59:09.087Z,98945
2017-01-11T12:00:09.191Z,98937
2017-01-11T12:01:09.781Z,98931
2017-01-11T12:02:09.691Z,98959
2017-01-11T12:03:09.376Z,98924
2017-01-11T12:04:13.519Z,98929
2017-01-11T12:05:11.267Z,98934
2017-01-11T12:06:10.067Z,98934
2017-01-11T12:07:10.090Z,98941
2017-01-11T12:08:09.474Z,98929
2017-01-11T12:09:09.536Z,98944
2017-01-11T12:10:09.595Z,98939
2017-01-11T12:11:10.882Z,98953
2017-01-11T12:12:10.341Z,98966
2017-01-11T12:13:10.934Z,98957
2017-01-11T12:14:11.000Z,98955
2017-01-11T12:15:12.735Z,98949
2017-01-11T12:16:10.578Z,98950
2017-01-11T12:17:10.510Z,98943
2017-01-11T12:18:14.661Z,98934
2017-01-11T12:19:11.295Z,98938
2017-01-11T12:20:10.535Z,98933
2017-01-11T12:21:11.470Z,98931
2017-01-11T12:22:09.559Z,98927
2017-01-11T12:23:11.699Z,98937
2017-01-11T12:24:10.871Z,98933
2017-01-11T12:25:17.049Z,98932
2017-01-11T12:26:13.697Z,98934
2017-01-11T12:27:10.514Z,98941
2017-01-11T12:28:11.044Z,98941
2017-01-11T12:29:11.098Z,98937
2017-01-11T12:30:10.604Z,98936
2017-01-11T12:31:10.116Z,98942
2017-01-11T12:32:10.652Z,98947
2017-01-11T12:33:13.339Z,98954
2017-01-11T12:34:12.007Z,98936
2017-01-11T12:35:10.701Z,98944
2017-01-11T12:36:10.812Z,98957
2017-01-11T12:37:10.240Z,98946
2017-01-11T12:38:10.279Z,98954
2017-01-11T12:39:10.323Z,98955
2017-01-11T12:40:10.988Z,98953
2017-01-11T12:41:11.140Z,98939
2017-01-11T12:42:12.477Z,98945
2017-01-11T12:43:11.122Z,98964
2017-01-11T12:44:10.605Z,98948
2017-01-11T12:45:12.348Z,98952
2017-01-11T12:46:10.760Z,98971
2017-01-11T12:47:11.965Z,98971
2017-01-11T12:48:10.909Z,98976
2017-01-11T12:49:12.110Z,98968
2017-01-11T12:50:12.920Z,98974
2017-01-11T12:51:12.165Z,98975
2017-01-11T12:52:11.493Z,98983
2017-01-11T12:53:12.316Z,98972
2017-01-11T12:54:11.644Z,98968
2017-01-11T12:55:11.683Z,98966